Terminal Aerodrome Forecast
Issued by NWS

Current Version | Previous Version | Graphics & Text | Print | Product List | Glossary On
Versions: 1 2 3 4 5 6 7 8 9 10 11 12 13 14 15 16 17 18 19 20 21 22 23 24 25
000
FTUS41 KILN 262327
TAFLUK
TAF
KLUK 262327Z 2700/2724 VRB03KT P6SM SCT035 BKN150
     FM270400 00000KT 3SM BR SCT150
     FM270600 00000KT 1SM BR SCT002 SCT150
      TEMPO 2708/2712 1/4SM FG VV002
     FM271300 VRB03KT 4SM BR BKN150
     FM271600 29004KT P6SM SCT035 BKN150=

USA.gov is the U.S. government's official web portal to all federal, state and local government web resources and services.